createdAt,value
2023-01-13T00:00:20.376Z,100737.70
2023-01-13T00:02:53.748Z,100729.44
2023-01-13T00:05:07.124Z,100716.48
2023-01-13T00:07:20.280Z,100719.61
2023-01-13T00:09:33.603Z,100725.27
2023-01-13T00:11:46.711Z,100726.05
2023-01-13T00:14:00.623Z,100721.20
2023-01-13T00:16:16.750Z,100711.00
2023-01-13T00:18:31.113Z,100704.04
2023-01-13T00:20:45.299Z,100701.21
2023-01-13T00:23:00.154Z,100692.60
2023-01-13T00:25:14.728Z,100692.48
2023-01-13T00:27:28.519Z,100687.40
2023-01-13T00:29:42.917Z,100690.40
2023-01-13T00:31:59.362Z,100696.38
2023-01-13T00:34:12.241Z,100699.82
2023-01-13T00:36:27.801Z,100693.08
2023-01-13T00:38:41.228Z,100690.86
2023-01-13T00:41:01.777Z,100681.65
2023-01-13T00:43:26.878Z,100698.29
2023-01-13T00:45:41.306Z,100692.45
2023-01-13T00:47:55.039Z,100710.16
2023-01-13T00:50:08.739Z,100705.32
2023-01-13T00:52:22.129Z,100707.79
2023-01-13T00:54:35.147Z,100718.00
2023-01-13T00:56:48.475Z,100722.47
2023-01-13T00:59:03.439Z,100720.05
2023-01-13T01:01:19.534Z,100714.85
2023-01-13T01:03:32.897Z,100717.38
2023-01-13T01:05:46.601Z,100718.67
2023-01-13T01:07:59.738Z,100719.61
2023-01-13T01:10:14.069Z,100719.63
2023-01-13T01:12:27.232Z,100718.87
2023-01-13T01:14:44.126Z,100715.92
2023-01-13T01:16:57.913Z,100716.73
2023-01-13T01:19:12.004Z,100717.02
2023-01-13T01:21:27.692Z,100708.17
2023-01-13T01:23:43.030Z,100699.59
2023-01-13T01:25:56.719Z,100694.59
2023-01-13T01:28:09.828Z,100699.27
2023-01-13T01:30:23.972Z,100703.52
2023-01-13T01:32:40.009Z,100698.88
2023-01-13T01:34:53.900Z,100703.71
2023-01-13T01:37:07.945Z,100696.38
2023-01-13T01:39:21.942Z,100693.66
2023-01-13T01:41:38.151Z,100688.41
2023-01-13T01:44:03.919Z,100688.39
2023-01-13T01:46:17.769Z,100684.34
2023-01-13T01:48:32.420Z,100689.90
2023-01-13T01:50:46.741Z,100691.27
2023-01-13T01:53:03.309Z,100683.96
2023-01-13T01:55:21.587Z,100679.52
2023-01-13T01:57:42.691Z,100678.69
2023-01-13T01:59:56.181Z,100678.40
2023-01-13T02:02:10.187Z,100679.30
2023-01-13T02:04:27.549Z,100680.66
2023-01-13T02:06:41.349Z,100675.98
2023-01-13T02:08:55.467Z,100664.42
2023-01-13T02:11:29.059Z,100668.42
2023-01-13T02:13:42.099Z,100669.88
2023-01-13T02:16:05.173Z,100670.35
2023-01-13T02:18:40.509Z,100658.13
2023-01-13T02:21:11.665Z,100657.52
2023-01-13T02:24:13.133Z,100652.14
2023-01-13T02:27:02.000Z,100652.83
2023-01-13T02:29:49.570Z,100653.14
2023-01-13T02:32:08.356Z,100656.86
2023-01-13T02:34:27.981Z,100651.43
2023-01-13T02:36:49.960Z,100656.15
2023-01-13T02:39:06.847Z,100665.14
2023-01-13T02:41:42.230Z,100667.04
2023-01-13T02:44:12.720Z,100667.13
2023-01-13T02:46:32.063Z,100672.41
2023-01-13T02:48:47.899Z,100674.45
2023-01-13T02:51:04.794Z,100673.14
2023-01-13T02:53:22.797Z,100681.31
2023-01-13T02:55:41.481Z,100680.30
2023-01-13T02:57:56.590Z,100683.94
2023-01-13T03:00:13.478Z,100686.76
2023-01-13T03:02:28.543Z,100699.16
2023-01-13T03:04:56.239Z,100700.98
2023-01-13T03:07:15.961Z,100703.14
2023-01-13T03:09:36.451Z,100713.55
2023-01-13T03:11:58.866Z,100722.21
2023-01-13T03:14:22.028Z,100731.14
2023-01-13T03:16:50.362Z,100735.31
2023-01-13T03:19:15.728Z,100749.51
2023-01-13T03:21:34.322Z,100757.20
2023-01-13T03:23:55.180Z,100753.22
2023-01-13T03:26:15.160Z,100763.83
2023-01-13T03:28:33.730Z,100759.96
2023-01-13T03:30:52.572Z,100762.88
2023-01-13T03:33:11.220Z,100764.67
2023-01-13T03:35:29.064Z,100765.02
2023-01-13T03:37:45.703Z,100766.69
2023-01-13T03:40:04.317Z,100764.93
2023-01-13T03:42:22.356Z,100768.55
2023-01-13T03:44:41.760Z,100764.89
2023-01-13T03:47:01.482Z,100774.06
2023-01-13T03:49:17.680Z,100784.66
2023-01-13T03:51:34.890Z,100793.59
2023-01-13T03:53:54.863Z,100802.58
2023-01-13T03:56:15.632Z,100814.45
2023-01-13T03:58:32.683Z,100825.77
2023-01-13T04:00:51.446Z,100823.02
2023-01-13T04:03:10.696Z,100819.98
2023-01-13T04:05:24.432Z,100825.00
2023-01-13T04:07:48.951Z,100818.52
2023-01-13T04:10:03.669Z,100811.08
2023-01-13T04:12:21.008Z,100803.52
2023-01-13T04:14:35.050Z,100793.75
2023-01-13T04:16:48.032Z,100781.06
2023-01-13T04:19:01.065Z,100765.56
2023-01-13T04:21:14.302Z,100774.82
2023-01-13T04:23:28.961Z,100765.02
2023-01-13T04:25:42.721Z,100764.78
2023-01-13T04:27:56.168Z,100751.84
2023-01-13T04:30:11.234Z,100753.17
2023-01-13T04:32:24.208Z,100749.91
2023-01-13T04:34:37.035Z,100753.69
2023-01-13T04:36:50.761Z,100742.61
2023-01-13T04:39:04.478Z,100728.27
2023-01-13T04:41:17.576Z,100730.48
2023-01-13T04:43:30.743Z,100724.23
2023-01-13T04:45:44.407Z,100709.98
2023-01-13T04:47:57.360Z,100699.36
2023-01-13T04:50:12.465Z,100685.87
2023-01-13T04:52:25.828Z,100687.11
2023-01-13T04:54:39.413Z,100693.91
2023-01-13T04:56:52.813Z,100694.88
2023-01-13T04:59:06.593Z,100698.56
2023-01-13T05:01:19.610Z,100699.83
2023-01-13T05:03:33.054Z,100707.19
2023-01-13T05:05:46.570Z,100710.48
2023-01-13T05:08:00.952Z,100699.73
2023-01-13T05:10:16.093Z,100694.25
2023-01-13T05:12:51.603Z,100692.16
2023-01-13T05:15:21.598Z,100690.41
2023-01-13T05:17:35.141Z,100686.27
2023-01-13T05:19:47.997Z,100684.73
2023-01-13T05:22:18.311Z,100677.56
2023-01-13T05:24:48.121Z,100678.20
2023-01-13T05:27:01.290Z,100672.25
2023-01-13T05:29:14.286Z,100671.05
2023-01-13T05:31:27.344Z,100674.80
2023-01-13T05:33:40.708Z,100687.02
2023-01-13T05:35:53.783Z,100698.55
2023-01-13T05:38:07.596Z,100696.07
2023-01-13T05:40:38.840Z,100698.44
2023-01-13T05:43:20.139Z,100702.63
2023-01-13T05:45:33.260Z,100707.26
2023-01-13T05:47:46.342Z,100704.55
2023-01-13T05:49:59.674Z,100707.33
2023-01-13T05:52:13.201Z,100700.82
2023-01-13T05:54:26.109Z,100697.84
2023-01-13T05:56:39.240Z,100697.14
2023-01-13T05:58:52.938Z,100698.96
2023-01-13T06:01:08.762Z,100690.46
2023-01-13T06:03:23.337Z,100684.67
2023-01-13T06:05:36.614Z,100681.34
2023-01-13T06:07:49.699Z,100676.82
2023-01-13T06:10:02.666Z,100660.74
2023-01-13T06:12:17.517Z,100655.33
2023-01-13T06:14:41.212Z,100648.91
2023-01-13T06:16:54.440Z,100641.77
2023-01-13T06:19:10.232Z,100638.47
2023-01-13T06:21:23.344Z,100637.05
2023-01-13T06:23:39.829Z,100632.39
2023-01-13T06:25:58.903Z,100625.64
2023-01-13T06:28:11.911Z,100627.96
2023-01-13T06:30:25.310Z,100630.14
2023-01-13T06:32:43.504Z,100625.02
2023-01-13T06:35:06.234Z,100631.06
2023-01-13T06:37:26.513Z,100625.90
2023-01-13T06:39:40.231Z,100621.27
2023-01-13T06:42:12.707Z,100629.44
2023-01-13T06:44:27.145Z,100631.63
2023-01-13T06:46:41.174Z,100638.77
2023-01-13T06:48:54.161Z,100643.73
2023-01-13T06:51:07.231Z,100658.54
2023-01-13T06:53:20.954Z,100664.33
2023-01-13T06:55:34.397Z,100668.89
2023-01-13T06:57:56.863Z,100668.52
2023-01-13T07:00:11.623Z,100675.20
2023-01-13T07:02:24.802Z,100670.95
2023-01-13T07:04:38.391Z,100677.61
2023-01-13T07:06:52.204Z,100664.68
2023-01-13T07:09:06.779Z,100664.89
2023-01-13T07:11:20.548Z,100661.30
2023-01-13T07:13:49.891Z,100662.89
2023-01-13T07:16:04.616Z,100671.77
2023-01-13T07:18:17.681Z,100673.54
2023-01-13T07:20:31.158Z,100668.05
2023-01-13T07:22:44.090Z,100665.64
2023-01-13T07:24:57.732Z,100674.57
2023-01-13T07:27:11.000Z,100677.77
2023-01-13T07:29:24.141Z,100678.52
2023-01-13T07:31:37.724Z,100681.83
2023-01-13T07:33:50.702Z,100677.11
2023-01-13T07:36:05.139Z,100678.98
2023-01-13T07:38:19.311Z,100669.26
2023-01-13T07:40:33.121Z,100665.44
2023-01-13T07:43:02.854Z,100663.02
2023-01-13T07:45:16.998Z,100661.42
2023-01-13T07:47:30.095Z,100652.95
2023-01-13T07:49:43.060Z,100654.11
2023-01-13T07:51:56.908Z,100653.31
2023-01-13T07:54:09.996Z,100642.39
2023-01-13T07:56:23.055Z,100633.48
2023-01-13T07:58:36.826Z,100635.98
2023-01-13T08:00:49.892Z,100633.30
2023-01-13T08:03:06.703Z,100625.16
2023-01-13T08:05:20.674Z,100620.50
2023-01-13T08:07:33.478Z,100617.01
2023-01-13T08:09:46.385Z,100608.80
2023-01-13T08:12:15.323Z,100607.61
2023-01-13T08:14:28.837Z,100601.85
2023-01-13T08:16:42.545Z,100591.48
2023-01-13T08:18:55.596Z,100592.05
2023-01-13T08:21:12.224Z,100589.55
2023-01-13T08:23:26.811Z,100594.23
2023-01-13T08:25:40.064Z,100587.84
2023-01-13T08:27:54.643Z,100582.31
2023-01-13T08:30:08.747Z,100576.48
2023-01-13T08:32:21.970Z,100575.63
2023-01-13T08:34:34.933Z,100568.89
2023-01-13T08:36:47.752Z,100555.23
2023-01-13T08:39:00.671Z,100551.52
2023-01-13T08:41:38.038Z,100546.69
2023-01-13T08:43:50.962Z,100535.65
2023-01-13T08:46:06.976Z,100536.04
2023-01-13T08:48:20.115Z,100542.27
2023-01-13T08:50:33.138Z,100544.66
2023-01-13T08:52:47.371Z,100546.76
2023-01-13T08:55:00.327Z,100547.88
2023-01-13T08:57:14.081Z,100544.95
2023-01-13T08:59:27.113Z,100538.23
2023-01-13T09:01:42.206Z,100528.46
2023-01-13T09:03:55.744Z,100524.33
2023-01-13T09:06:09.448Z,100530.23
2023-01-13T09:08:22.493Z,100533.75
2023-01-13T09:10:36.918Z,100526.99
2023-01-13T09:13:06.409Z,100533.17
2023-01-13T09:15:20.705Z,100527.51
2023-01-13T09:17:34.182Z,100529.22
2023-01-13T09:19:47.323Z,100537.00
2023-01-13T09:22:00.538Z,100540.52
2023-01-13T09:24:14.551Z,100548.36
2023-01-13T09:26:27.921Z,100560.56
2023-01-13T09:28:41.650Z,100560.36
2023-01-13T09:30:54.697Z,100560.95
2023-01-13T09:33:24.570Z,100558.75
2023-01-13T09:35:39.630Z,100558.48
2023-01-13T09:37:56.189Z,100554.80
2023-01-13T09:40:13.031Z,100561.93
2023-01-13T09:42:50.923Z,100563.34
2023-01-13T09:45:07.928Z,100566.21
2023-01-13T09:47:26.471Z,100564.14
2023-01-13T09:49:42.418Z,100569.52
2023-01-13T09:52:00.923Z,100572.16
2023-01-13T09:54:21.143Z,100586.52
2023-01-13T09:56:34.664Z,100597.31
2023-01-13T09:58:48.902Z,100601.91
2023-01-13T10:01:17.762Z,100616.75
2023-01-13T10:03:33.274Z,100630.80
2023-01-13T10:05:48.483Z,100640.02
2023-01-13T10:08:06.555Z,100642.61
2023-01-13T10:10:25.032Z,100655.89
2023-01-13T10:12:55.425Z,100662.33
2023-01-13T10:15:08.986Z,100666.70
2023-01-13T10:17:30.794Z,100673.06
2023-01-13T10:19:48.902Z,100681.45
2023-01-13T10:22:26.967Z,100678.42
2023-01-13T10:25:03.775Z,100674.09
2023-01-13T10:27:25.135Z,100679.71
2023-01-13T10:29:39.650Z,100684.50
2023-01-13T10:31:52.482Z,100687.04
2023-01-13T10:34:08.759Z,100688.64
2023-01-13T10:36:24.103Z,100694.53
2023-01-13T10:38:43.504Z,100695.79
2023-01-13T10:40:58.283Z,100706.45
2023-01-13T10:43:15.644Z,100709.66
2023-01-13T10:45:32.115Z,100705.41
2023-01-13T10:47:45.652Z,100698.85
2023-01-13T10:50:23.542Z,100703.10
2023-01-13T10:52:40.617Z,100698.38
2023-01-13T10:54:59.088Z,100694.45
2023-01-13T10:57:25.985Z,100697.42
2023-01-13T10:59:39.172Z,100713.44
2023-01-13T11:02:04.044Z,100702.73
2023-01-13T11:04:38.135Z,100680.48
2023-01-13T11:06:53.422Z,100675.15
2023-01-13T11:09:06.591Z,100686.80
2023-01-13T11:11:45.375Z,100699.98
2023-01-13T11:14:20.953Z,100693.30
2023-01-13T11:16:34.462Z,100676.36
2023-01-13T11:19:03.380Z,100681.56
2023-01-13T11:21:24.995Z,100663.16
2023-01-13T11:23:43.072Z,100656.03
2023-01-13T11:26:06.355Z,100651.86
2023-01-13T11:28:43.215Z,100642.33
2023-01-13T11:31:03.866Z,100671.61
2023-01-13T11:33:39.442Z,100667.34
2023-01-13T11:36:00.442Z,100633.46
2023-01-13T11:38:22.334Z,100629.85
2023-01-13T11:40:41.244Z,100628.52
2023-01-13T11:42:58.232Z,100625.59
2023-01-13T11:45:20.152Z,100622.85
2023-01-13T11:47:33.512Z,100624.94
2023-01-13T11:49:49.776Z,100613.92
2023-01-13T11:52:09.872Z,100605.89
2023-01-13T11:54:39.410Z,100588.70
2023-01-13T11:57:14.943Z,100583.95
2023-01-13T11:59:56.934Z,100593.31
2023-01-13T12:02:29.550Z,100624.98
2023-01-13T12:04:56.821Z,100638.70
2023-01-13T12:07:17.743Z,100640.80
2023-01-13T12:09:49.013Z,100631.19
2023-01-13T12:12:28.622Z,100624.69
2023-01-13T12:14:50.908Z,100617.34
2023-01-13T12:17:08.792Z,100615.84
2023-01-13T12:19:29.158Z,100617.96
2023-01-13T12:21:49.775Z,100621.45
2023-01-13T12:24:18.269Z,100635.10
2023-01-13T12:26:33.381Z,100640.25
2023-01-13T12:28:53.415Z,100634.54
2023-01-13T12:31:08.485Z,100624.09
2023-01-13T12:33:32.415Z,100620.55
2023-01-13T12:35:51.327Z,100633.55
2023-01-13T12:38:12.425Z,100640.95
2023-01-13T12:40:39.768Z,100642.04
2023-01-13T12:43:15.044Z,100633.52
2023-01-13T12:45:31.543Z,100650.58
2023-01-13T12:47:46.564Z,100652.34
2023-01-13T12:50:36.383Z,100652.02
2023-01-13T12:52:52.081Z,100650.17
2023-01-13T12:55:19.054Z,100647.32
2023-01-13T12:57:32.806Z,100634.89
2023-01-13T12:59:52.721Z,100628.02
2023-01-13T13:02:38.488Z,100625.38
2023-01-13T13:04:53.479Z,100635.23
2023-01-13T13:07:13.863Z,100638.14
2023-01-13T13:09:32.671Z,100635.70
2023-01-13T13:12:05.606Z,100634.47
2023-01-13T13:14:39.599Z,100629.08
2023-01-13T13:16:55.538Z,100624.44
2023-01-13T13:19:37.421Z,100621.49
2023-01-13T13:22:20.343Z,100618.52
2023-01-13T13:24:34.941Z,100622.58
2023-01-13T13:26:49.553Z,100623.71
2023-01-13T13:29:23.776Z,100621.33
2023-01-13T13:31:53.781Z,100614.42
2023-01-13T13:34:33.862Z,100625.89
2023-01-13T13:37:07.620Z,100624.05
2023-01-13T13:39:46.394Z,100621.73
2023-01-13T13:42:22.426Z,100637.00
2023-01-13T13:44:56.404Z,100634.62
2023-01-13T13:47:11.543Z,100630.08
2023-01-13T13:49:37.925Z,100635.44
2023-01-13T13:51:58.255Z,100628.02
2023-01-13T13:54:13.491Z,100621.08
2023-01-13T13:56:30.078Z,100623.80
2023-01-13T13:58:43.823Z,100621.75
2023-01-13T14:01:02.019Z,100624.98
2023-01-13T14:03:29.529Z,100621.51
2023-01-13T14:05:43.379Z,100633.70
2023-01-13T14:08:03.034Z,100633.33
2023-01-13T14:10:23.395Z,100635.46
2023-01-13T14:12:43.640Z,100635.34
2023-01-13T14:14:58.659Z,100638.45
2023-01-13T14:17:21.808Z,100636.92
2023-01-13T14:19:45.277Z,100637.36
2023-01-13T14:22:02.015Z,100644.89
2023-01-13T14:24:22.316Z,100650.23
2023-01-13T14:26:36.727Z,100649.50
2023-01-13T14:28:50.976Z,100645.59
2023-01-13T14:31:04.408Z,100646.01
2023-01-13T14:33:20.333Z,100641.58
2023-01-13T14:35:33.247Z,100641.62
2023-01-13T14:37:47.337Z,100646.48
2023-01-13T14:40:01.735Z,100654.70
2023-01-13T14:42:20.343Z,100657.30
2023-01-13T14:44:36.608Z,100669.41
2023-01-13T14:46:51.090Z,100664.85
2023-01-13T14:49:08.056Z,100658.84
2023-01-13T14:51:29.091Z,100664.57
2023-01-13T14:53:47.928Z,100661.92
2023-01-13T14:56:01.747Z,100665.64
2023-01-13T14:58:32.025Z,100664.63
2023-01-13T15:00:44.903Z,100662.32
2023-01-13T15:03:12.174Z,100665.05
2023-01-13T15:05:50.674Z,100670.65
2023-01-13T15:08:05.709Z,100666.76
2023-01-13T15:10:22.054Z,100661.67
2023-01-13T15:12:40.813Z,100657.59
2023-01-13T15:14:55.766Z,100654.42
2023-01-13T15:17:12.525Z,100655.34
2023-01-13T15:19:25.716Z,100659.92
2023-01-13T15:21:39.558Z,100659.73
2023-01-13T15:23:52.545Z,100664.32
2023-01-13T15:26:06.726Z,100666.15
2023-01-13T15:28:23.890Z,100664.91
2023-01-13T15:30:37.851Z,100656.58
2023-01-13T15:32:51.245Z,100649.98
2023-01-13T15:35:05.205Z,100646.66
2023-01-13T15:37:18.736Z,100654.64
2023-01-13T15:39:32.828Z,100645.95
2023-01-13T15:42:02.559Z,100648.33
2023-01-13T15:44:34.022Z,100644.61
2023-01-13T15:46:48.572Z,100633.54
2023-01-13T15:49:04.040Z,100636.77
2023-01-13T15:51:18.782Z,100634.66
2023-01-13T15:53:32.273Z,100638.08
2023-01-13T15:55:48.362Z,100632.73
2023-01-13T15:58:03.139Z,100627.71
2023-01-13T16:00:21.943Z,100623.26
2023-01-13T16:02:35.153Z,100621.34
2023-01-13T16:04:48.967Z,100621.46
2023-01-13T16:07:02.728Z,100619.96
2023-01-13T16:09:18.048Z,100619.79
2023-01-13T16:11:31.235Z,100615.55
2023-01-13T16:13:44.221Z,100617.27
2023-01-13T16:15:57.810Z,100619.72
2023-01-13T16:18:17.927Z,100624.25
2023-01-13T16:20:31.598Z,100626.13
2023-01-13T16:22:44.779Z,100623.23
2023-01-13T16:24:57.936Z,100623.73
2023-01-13T16:27:17.330Z,100627.77
2023-01-13T16:29:31.142Z,100628.33
2023-01-13T16:31:44.896Z,100625.32
2023-01-13T16:33:58.295Z,100623.58
2023-01-13T16:36:18.039Z,100628.56
2023-01-13T16:38:31.639Z,100621.99
2023-01-13T16:40:44.976Z,100622.48
2023-01-13T16:42:58.329Z,100626.10
2023-01-13T16:45:12.830Z,100633.21
2023-01-13T16:47:26.520Z,100636.35
2023-01-13T16:49:39.774Z,100641.64
2023-01-13T16:51:53.118Z,100645.94
2023-01-13T16:54:07.443Z,100646.66
2023-01-13T16:56:31.288Z,100648.95
2023-01-13T16:58:45.896Z,100661.22
2023-01-13T17:01:00.000Z,100661.73
2023-01-13T17:03:14.048Z,100661.35
2023-01-13T17:05:27.239Z,100663.70
2023-01-13T17:07:40.360Z,100665.84
2023-01-13T17:09:53.663Z,100670.50
2023-01-13T17:12:08.263Z,100682.60
2023-01-13T17:14:24.581Z,100686.93
2023-01-13T17:16:39.326Z,100693.73
2023-01-13T17:18:53.833Z,100685.96
2023-01-13T17:21:08.248Z,100686.89
2023-01-13T17:23:21.532Z,100683.95
2023-01-13T17:25:34.637Z,100683.08
2023-01-13T17:27:48.888Z,100676.40
2023-01-13T17:30:02.404Z,100672.88
2023-01-13T17:32:17.962Z,100664.94
2023-01-13T17:34:31.533Z,100656.88
2023-01-13T17:36:47.985Z,100652.35
2023-01-13T17:39:01.317Z,100647.98
2023-01-13T17:41:15.091Z,100641.83
2023-01-13T17:43:30.017Z,100638.64
2023-01-13T17:45:46.724Z,100644.30
2023-01-13T17:48:02.136Z,100642.84
2023-01-13T17:50:16.238Z,100645.70
2023-01-13T17:52:29.778Z,100649.77
2023-01-13T17:54:45.041Z,100651.12
2023-01-13T17:56:58.364Z,100653.45
2023-01-13T17:59:12.791Z,100655.30
2023-01-13T18:01:31.895Z,100649.44
2023-01-13T18:03:46.435Z,100653.63
2023-01-13T18:06:05.295Z,100649.02
2023-01-13T18:08:18.418Z,100655.45
2023-01-13T18:10:32.346Z,100656.09
2023-01-13T18:12:45.327Z,100651.44
2023-01-13T18:14:58.259Z,100646.15
2023-01-13T18:17:11.201Z,100650.55
2023-01-13T18:19:41.717Z,100651.84
2023-01-13T18:22:11.783Z,100653.51
2023-01-13T18:24:40.840Z,100661.54
2023-01-13T18:27:10.765Z,100665.76
2023-01-13T18:29:24.713Z,100670.98
2023-01-13T18:31:37.684Z,100672.33
2023-01-13T18:33:50.414Z,100678.09
2023-01-13T18:36:09.115Z,100678.91
2023-01-13T18:38:23.232Z,100693.77
2023-01-13T18:40:36.421Z,100696.84
2023-01-13T18:42:56.774Z,100699.76
2023-01-13T18:45:10.692Z,100701.37
2023-01-13T18:47:23.712Z,100693.55
2023-01-13T18:49:37.773Z,100700.58
2023-01-13T18:51:50.733Z,100703.99
2023-01-13T18:54:03.983Z,100706.38
2023-01-13T18:56:18.144Z,100697.49
2023-01-13T18:58:31.734Z,100694.06
2023-01-13T19:00:44.904Z,100686.18
2023-01-13T19:05:19.593Z,100668.27
2023-01-13T19:07:33.423Z,100664.97
2023-01-13T19:09:46.559Z,100669.09
2023-01-13T19:12:00.317Z,100670.90
2023-01-13T19:14:13.355Z,100666.08
2023-01-13T19:16:26.937Z,100664.55
2023-01-13T19:18:40.245Z,100662.19
2023-01-13T19:20:53.173Z,100662.09
2023-01-13T19:23:06.074Z,100658.55
2023-01-13T19:25:19.134Z,100657.20
2023-01-13T19:27:32.496Z,100655.57
2023-01-13T19:29:48.441Z,100659.40
2023-01-13T19:32:06.723Z,100656.19
2023-01-13T19:34:20.150Z,100653.69
2023-01-13T19:36:33.604Z,100650.99
2023-01-13T19:38:46.940Z,100649.73
2023-01-13T19:41:01.337Z,100645.83
2023-01-13T19:43:31.457Z,100645.27
2023-01-13T19:45:45.907Z,100640.59
2023-01-13T19:47:58.964Z,100635.09
2023-01-13T19:50:13.227Z,100626.73
2023-01-13T19:52:27.812Z,100630.48
2023-01-13T19:54:41.185Z,100625.02
2023-01-13T19:56:56.208Z,100621.62
2023-01-13T19:59:10.097Z,100616.02
2023-01-13T20:01:26.044Z,100608.30
2023-01-13T20:03:40.107Z,100608.54
2023-01-13T20:05:53.834Z,100598.49
2023-01-13T20:08:07.158Z,100597.64
2023-01-13T20:10:21.745Z,100590.96
2023-01-13T20:12:34.748Z,100580.60
2023-01-13T20:14:48.718Z,100579.82
2023-01-13T20:17:02.498Z,100569.64
2023-01-13T20:19:16.387Z,100556.00
2023-01-13T20:21:29.838Z,100560.09
2023-01-13T20:23:43.037Z,100552.04
2023-01-13T20:25:56.425Z,100552.73
2023-01-13T20:28:09.677Z,100539.35
2023-01-13T20:30:22.750Z,100535.88
2023-01-13T20:32:36.338Z,100528.35
2023-01-13T20:34:49.879Z,100519.81
2023-01-13T20:37:04.021Z,100515.77
2023-01-13T20:39:23.940Z,100511.86
2023-01-13T20:41:53.837Z,100515.17
2023-01-13T20:44:08.699Z,100509.77
2023-01-13T20:46:22.083Z,100508.25
2023-01-13T20:48:35.090Z,100505.27
2023-01-13T20:50:48.210Z,100499.04
2023-01-13T20:53:01.341Z,100496.70
2023-01-13T20:55:18.350Z,100493.74
2023-01-13T20:57:31.240Z,100488.98
2023-01-13T20:59:44.768Z,100482.73
2023-01-13T21:01:59.219Z,100477.34
2023-01-13T21:04:12.978Z,100473.43
2023-01-13T21:06:26.677Z,100472.48
2023-01-13T21:08:40.463Z,100468.98
2023-01-13T21:10:53.788Z,100466.08
2023-01-13T21:13:23.999Z,100460.86
2023-01-13T21:15:37.530Z,100460.06
2023-01-13T21:18:07.796Z,100459.90
2023-01-13T21:20:20.751Z,100460.94
2023-01-13T21:22:33.888Z,100460.63
2023-01-13T21:24:46.818Z,100447.66
2023-01-13T21:27:01.267Z,100450.75
2023-01-13T21:29:14.687Z,100448.84
2023-01-13T21:31:28.025Z,100447.13
2023-01-13T21:33:41.140Z,100441.40
2023-01-13T21:35:54.601Z,100441.95
2023-01-13T21:38:08.879Z,100438.05
2023-01-13T21:40:22.278Z,100433.88
2023-01-13T21:42:51.889Z,100428.37
2023-01-13T21:45:21.610Z,100421.56
2023-01-13T21:47:53.480Z,100419.04
2023-01-13T21:50:07.647Z,100411.50
2023-01-13T21:52:21.778Z,100411.65
2023-01-13T21:54:34.731Z,100409.13
2023-01-13T21:56:48.096Z,100405.74
2023-01-13T21:59:01.330Z,100398.40
2023-01-13T22:01:14.174Z,100392.67
2023-01-13T22:03:27.453Z,100396.73
2023-01-13T22:05:41.010Z,100388.30
2023-01-13T22:07:54.979Z,100383.83
2023-01-13T22:10:08.784Z,100379.30
2023-01-13T22:12:24.564Z,100384.08
2023-01-13T22:14:37.602Z,100382.63
2023-01-13T22:16:51.864Z,100380.77
2023-01-13T22:19:05.551Z,100380.48
2023-01-13T22:21:19.097Z,100376.17
2023-01-13T22:23:32.741Z,100375.28
2023-01-13T22:25:45.936Z,100380.27
2023-01-13T22:28:04.911Z,100382.89
2023-01-13T22:30:20.167Z,100378.44
2023-01-13T22:32:33.189Z,100382.38
2023-01-13T22:34:46.349Z,100380.17
2023-01-13T22:36:59.401Z,100377.89
2023-01-13T22:39:13.430Z,100384.27
2023-01-13T22:41:26.579Z,100384.83
2023-01-13T22:43:40.389Z,100382.08
2023-01-13T22:46:02.960Z,100383.16
2023-01-13T22:48:13.357Z,100381.36
2023-01-13T22:50:26.414Z,100376.52
2023-01-13T22:52:39.646Z,100382.39
2023-01-13T22:54:53.273Z,100383.67
2023-01-13T22:57:06.954Z,100377.11
2023-01-13T22:59:23.059Z,100376.95
2023-01-13T23:01:38.331Z,100373.63
2023-01-13T23:03:53.571Z,100370.23
2023-01-13T23:06:07.855Z,100367.75
2023-01-13T23:08:21.098Z,100372.73
2023-01-13T23:10:34.136Z,100376.10
2023-01-13T23:12:50.181Z,100369.50
2023-01-13T23:15:03.929Z,100371.27
2023-01-13T23:17:17.261Z,100371.31
2023-01-13T23:19:31.050Z,100365.38
2023-01-13T23:21:44.569Z,100361.04
2023-01-13T23:23:59.027Z,100360.21
2023-01-13T23:26:13.561Z,100365.20
2023-01-13T23:28:26.431Z,100365.21
2023-01-13T23:30:42.856Z,100369.66
2023-01-13T23:32:56.072Z,100376.05
2023-01-13T23:35:10.079Z,100373.77
2023-01-13T23:37:23.504Z,100371.73
2023-01-13T23:39:36.631Z,100372.65
2023-01-13T23:41:49.590Z,100374.65
2023-01-13T23:44:04.135Z,100370.95
2023-01-13T23:46:18.262Z,100363.62
2023-01-13T23:48:31.898Z,100367.06
2023-01-13T23:50:45.100Z,100368.20
2023-01-13T23:52:58.043Z,100364.76
2023-01-13T23:55:11.972Z,100360.00
2023-01-13T23:57:25.249Z,100360.24
2023-01-13T23:59:38.513Z,100367.45
